createdAt,value
2022-08-02T00:00:12.155Z,22.20
2022-08-02T00:02:39.100Z,22.18
2022-08-02T00:05:06.813Z,22.17
2022-08-02T00:07:37.721Z,22.16
2022-08-02T00:10:09.544Z,22.17
2022-08-02T00:12:36.597Z,22.19
2022-08-02T00:15:04.567Z,22.20
2022-08-02T00:17:31.186Z,22.20
2022-08-02T00:19:57.832Z,22.20
2022-08-02T00:22:24.481Z,22.21
2022-08-02T00:24:51.069Z,22.22
2022-08-02T00:27:18.389Z,22.22
2022-08-02T00:29:52.906Z,22.22
2022-08-02T00:32:23.092Z,22.23
2022-08-02T00:34:50.500Z,22.22
2022-08-02T00:37:17.036Z,22.21
2022-08-02T00:39:43.632Z,22.21
2022-08-02T00:42:11.457Z,22.20
2022-08-02T00:44:38.284Z,22.17
2022-08-02T00:47:05.170Z,22.18
2022-08-02T00:49:32.131Z,22.16
2022-08-02T00:52:00.306Z,22.14
2022-08-02T00:54:27.488Z,22.12
2022-08-02T00:56:54.151Z,22.09
2022-08-02T00:59:20.919Z,22.07
2022-08-02T01:01:56.675Z,22.04
2022-08-02T01:04:31.091Z,22.04
2022-08-02T01:07:03.344Z,22.02
2022-08-02T01:09:40.414Z,22.03
2022-08-02T01:12:07.883Z,22.01
2022-08-02T01:14:34.708Z,22.01
2022-08-02T01:17:28.649Z,21.99
2022-08-02T01:20:20.059Z,21.94
2022-08-02T01:23:13.833Z,21.91
2022-08-02T01:25:52.491Z,21.91
2022-08-02T01:28:37.724Z,21.89
2022-08-02T01:31:19.250Z,21.88
2022-08-02T01:33:54.165Z,21.86
2022-08-02T01:36:23.750Z,21.84
2022-08-02T01:38:54.569Z,21.83
2022-08-02T01:41:25.495Z,21.81
2022-08-02T01:43:56.704Z,21.78
2022-08-02T01:46:25.308Z,21.79
2022-08-02T01:48:54.455Z,21.75
2022-08-02T01:51:22.113Z,21.74
2022-08-02T01:53:51.203Z,21.70
2022-08-02T01:56:19.585Z,21.68
2022-08-02T01:58:48.101Z,21.65
2022-08-02T02:01:18.734Z,21.61
2022-08-02T02:03:48.685Z,21.57
2022-08-02T02:06:16.233Z,21.53
2022-08-02T02:08:44.373Z,21.48
2022-08-02T02:12:05.849Z,21.34
2022-08-02T02:14:00.854Z,21.38
2022-08-02T02:16:28.537Z,21.40
2022-08-02T02:18:55.290Z,21.36
2022-08-02T02:21:22.057Z,21.34
2022-08-02T02:23:50.064Z,21.32
2022-08-02T02:26:29.629Z,21.29
2022-08-02T02:29:02.328Z,21.27
2022-08-02T02:31:34.728Z,21.23
2022-08-02T02:34:04.738Z,21.20
2022-08-02T02:36:34.042Z,21.18
2022-08-02T02:39:04.181Z,21.17
2022-08-02T02:41:31.020Z,21.13
2022-08-02T02:44:01.290Z,21.11
2022-08-02T02:46:30.653Z,21.09
2022-08-02T02:48:58.312Z,21.07
2022-08-02T02:51:25.595Z,21.05
2022-08-02T02:54:30.589Z,21.03
2022-08-02T02:56:41.068Z,20.90
2022-08-02T02:59:09.044Z,20.98
2022-08-02T03:01:56.621Z,20.99
2022-08-02T03:04:24.959Z,21.00
2022-08-02T03:06:51.680Z,20.99
2022-08-02T03:09:18.303Z,20.97
2022-08-02T03:11:45.604Z,20.98
2022-08-02T03:14:13.076Z,20.98
2022-08-02T03:16:47.989Z,20.98
2022-08-02T03:19:15.172Z,21.02
2022-08-02T03:21:46.237Z,21.04
2022-08-02T03:24:13.729Z,21.08
2022-08-02T03:26:41.433Z,21.10
2022-08-02T03:29:09.763Z,21.10
2022-08-02T03:31:41.428Z,21.12
2022-08-02T03:34:08.456Z,21.12
2022-08-02T03:36:35.449Z,21.10
2022-08-02T03:39:03.686Z,21.10
2022-08-02T03:41:32.679Z,21.08
2022-08-02T03:44:00.690Z,21.07
2022-08-02T03:46:27.599Z,21.06
2022-08-02T03:48:54.823Z,21.06
2022-08-02T03:51:22.636Z,21.03
2022-08-02T03:53:50.000Z,21.02
2022-08-02T03:56:17.005Z,21.02
2022-08-02T03:58:48.633Z,21.04
2022-08-02T04:01:16.164Z,21.02
2022-08-02T04:03:42.966Z,21.04
2022-08-02T04:06:09.615Z,21.05
2022-08-02T04:08:38.374Z,21.05
2022-08-02T04:11:06.584Z,21.05
2022-08-02T04:13:36.132Z,21.05
2022-08-02T04:16:17.928Z,21.07
2022-08-02T04:18:55.625Z,21.07
2022-08-02T04:21:25.797Z,21.09
2022-08-02T04:23:53.256Z,21.13
2022-08-02T04:26:26.777Z,21.16
2022-08-02T04:28:56.848Z,21.20
2022-08-02T04:31:23.558Z,21.25
2022-08-02T04:33:50.594Z,21.30
2022-08-02T04:36:30.996Z,21.36
2022-08-02T04:38:58.508Z,21.41
2022-08-02T04:41:40.760Z,21.47
2022-08-02T04:44:10.634Z,21.54
2022-08-02T04:46:37.423Z,21.61
2022-08-02T04:49:04.837Z,21.66
2022-08-02T04:51:37.673Z,21.72
2022-08-02T04:54:09.506Z,21.79
2022-08-02T04:56:36.336Z,21.84
2022-08-02T04:59:03.036Z,21.90
2022-08-02T05:01:29.628Z,21.93
2022-08-02T05:03:56.250Z,21.97
2022-08-02T05:06:22.858Z,22.00
2022-08-02T05:08:52.823Z,22.04
2022-08-02T05:11:21.348Z,22.07
2022-08-02T05:13:58.872Z,22.11
2022-08-02T05:16:30.859Z,22.17
2022-08-02T05:18:58.714Z,22.24
2022-08-02T05:21:25.236Z,22.29
2022-08-02T05:23:51.786Z,22.35
2022-08-02T05:26:18.508Z,22.38
2022-08-02T05:28:45.282Z,22.40
2022-08-02T05:31:13.406Z,22.41
2022-08-02T05:33:40.705Z,22.41
2022-08-02T05:36:07.536Z,22.40
2022-08-02T05:38:36.973Z,22.40
2022-08-02T05:41:05.339Z,22.40
2022-08-02T05:43:32.764Z,22.39
2022-08-02T05:45:59.774Z,22.36
2022-08-02T05:48:31.179Z,22.35
2022-08-02T05:51:17.012Z,22.33
2022-08-02T05:53:52.082Z,22.32
2022-08-02T05:56:50.915Z,22.31
2022-08-02T05:59:32.476Z,22.35
2022-08-02T06:02:04.570Z,22.37
2022-08-02T06:04:51.182Z,22.40
2022-08-02T06:07:19.604Z,22.46
2022-08-02T06:09:49.107Z,22.53
2022-08-02T06:12:17.288Z,22.61
2022-08-02T06:14:46.111Z,22.70
2022-08-02T06:17:14.105Z,22.79
2022-08-02T06:19:51.516Z,22.74
2022-08-02T06:22:32.542Z,22.93
2022-08-02T06:25:04.147Z,23.04
2022-08-02T06:27:31.775Z,23.00
2022-08-02T06:29:58.604Z,23.19
2022-08-02T06:32:26.877Z,23.31
2022-08-02T06:34:53.515Z,23.39
2022-08-02T06:37:29.318Z,23.45
2022-08-02T06:40:07.990Z,23.54
2022-08-02T06:43:12.396Z,23.61
2022-08-02T06:45:40.117Z,23.69
2022-08-02T06:48:07.872Z,23.74
2022-08-02T06:50:35.512Z,23.77
2022-08-02T06:53:02.095Z,23.84
2022-08-02T06:55:28.690Z,23.92
2022-08-02T06:57:55.263Z,23.96
2022-08-02T07:00:21.961Z,24.00
2022-08-02T07:02:49.487Z,24.07
2022-08-02T07:05:16.389Z,24.11
2022-08-02T07:07:43.022Z,24.18
2022-08-02T07:10:09.816Z,24.25
2022-08-02T07:12:36.423Z,24.32
2022-08-02T07:15:06.107Z,24.39
2022-08-02T07:17:33.557Z,24.47
2022-08-02T07:20:00.917Z,24.56
2022-08-02T07:22:28.247Z,24.63
2022-08-02T07:24:57.463Z,24.71
2022-08-02T07:27:24.322Z,24.77
2022-08-02T07:29:51.165Z,24.83
2022-08-02T07:32:19.147Z,24.84
2022-08-02T07:34:50.624Z,24.71
2022-08-02T07:37:32.564Z,24.81
2022-08-02T07:40:11.812Z,24.83
2022-08-02T07:42:40.041Z,24.85
2022-08-02T07:45:07.134Z,24.88
2022-08-02T07:47:37.302Z,24.94
2022-08-02T07:50:04.589Z,25.03
2022-08-02T07:52:31.240Z,25.06
2022-08-02T07:54:57.921Z,25.11
2022-08-02T07:57:24.502Z,25.14
2022-08-02T07:59:51.142Z,25.18
2022-08-02T08:02:17.898Z,25.19
2022-08-02T08:04:44.646Z,25.24
2022-08-02T08:07:11.244Z,25.25
2022-08-02T08:09:38.704Z,25.30
2022-08-02T08:12:06.532Z,25.34
2022-08-02T08:14:33.215Z,25.25
2022-08-02T08:17:00.676Z,25.43
2022-08-02T08:19:49.976Z,25.49
2022-08-02T08:22:14.240Z,25.50
2022-08-02T08:24:41.485Z,25.51
2022-08-02T08:27:08.179Z,25.49
2022-08-02T08:29:34.696Z,25.48
2022-08-02T08:32:01.289Z,25.52
2022-08-02T08:34:27.837Z,25.62
2022-08-02T08:36:54.449Z,25.66
2022-08-02T08:39:21.010Z,25.69
2022-08-02T08:41:47.865Z,25.74
2022-08-02T08:44:14.534Z,25.77
2022-08-02T08:46:43.226Z,25.82
2022-08-02T08:49:18.323Z,25.85
2022-08-02T08:51:45.251Z,25.88
2022-08-02T08:54:15.924Z,25.88
2022-08-02T08:56:43.834Z,25.92
2022-08-02T08:59:10.483Z,25.88
2022-08-02T09:01:49.960Z,26.12
2022-08-02T09:04:18.553Z,26.22
2022-08-02T09:06:45.156Z,26.29
2022-08-02T09:09:11.762Z,26.37
2022-08-02T09:11:38.333Z,26.41
2022-08-02T09:14:05.315Z,26.46
2022-08-02T09:16:32.986Z,26.53
2022-08-02T09:19:00.021Z,26.58
2022-08-02T09:21:36.431Z,26.64
2022-08-02T09:24:14.734Z,26.72
2022-08-02T09:26:42.247Z,26.75
2022-08-02T09:29:09.137Z,26.82
2022-08-02T09:31:35.648Z,26.89
2022-08-02T09:34:02.312Z,26.94
2022-08-02T09:36:40.191Z,26.99
2022-08-02T09:39:08.976Z,27.10
2022-08-02T09:41:37.593Z,27.17
2022-08-02T09:44:06.783Z,27.26
2022-08-02T09:46:39.194Z,27.35
2022-08-02T09:49:15.576Z,27.46
2022-08-02T09:51:45.180Z,27.56
2022-08-02T09:54:18.814Z,27.66
2022-08-02T09:56:59.375Z,27.78
2022-08-02T09:59:27.646Z,27.94
2022-08-02T10:02:01.741Z,28.09
2022-08-02T10:04:34.360Z,28.23
2022-08-02T10:07:19.255Z,28.37
2022-08-02T10:09:49.010Z,28.45
2022-08-02T10:12:16.049Z,28.50
2022-08-02T10:14:43.185Z,28.56
2022-08-02T10:17:09.895Z,28.52
2022-08-02T10:20:02.076Z,28.53
2022-08-02T10:22:23.888Z,28.54
2022-08-02T10:24:51.435Z,28.66
2022-08-02T10:27:21.541Z,28.71
2022-08-02T10:29:53.760Z,28.80
2022-08-02T10:32:37.575Z,28.91
2022-08-02T10:35:18.240Z,28.97
2022-08-02T10:37:47.860Z,29.20
2022-08-02T10:40:15.043Z,29.22
2022-08-02T10:42:47.225Z,29.21
2022-08-02T10:45:17.386Z,29.22
2022-08-02T10:48:10.337Z,29.17
2022-08-02T10:50:46.270Z,29.20
2022-08-02T10:53:23.978Z,29.22
2022-08-02T10:55:51.791Z,29.26
2022-08-02T10:58:26.218Z,29.25
2022-08-02T11:00:53.926Z,29.26
2022-08-02T11:03:29.119Z,29.30
2022-08-02T11:06:03.566Z,29.36
2022-08-02T11:08:30.342Z,29.42
2022-08-02T11:11:16.729Z,29.46
2022-08-02T11:14:07.316Z,29.43
2022-08-02T11:16:59.917Z,29.42
2022-08-02T11:19:27.596Z,29.47
2022-08-02T11:22:07.164Z,29.48
2022-08-02T11:24:35.350Z,29.53
2022-08-02T11:27:04.975Z,29.55
2022-08-02T11:29:33.458Z,29.58
2022-08-02T11:32:06.855Z,29.56
2022-08-02T11:34:37.421Z,29.57
2022-08-02T11:37:05.238Z,29.61
2022-08-02T11:39:31.869Z,29.66
2022-08-02T11:42:00.668Z,29.69
2022-08-02T11:44:29.251Z,29.68
2022-08-02T11:47:01.841Z,29.65
2022-08-02T11:49:28.779Z,29.74
2022-08-02T11:52:00.979Z,29.76
2022-08-02T11:54:32.469Z,29.86
2022-08-02T11:57:21.964Z,29.90
2022-08-02T11:59:53.550Z,29.96
2022-08-02T12:02:22.874Z,30.06
2022-08-02T12:05:05.637Z,30.12
2022-08-02T12:07:45.850Z,30.19
2022-08-02T12:10:21.504Z,30.29
2022-08-02T12:12:57.250Z,30.31
2022-08-02T12:15:34.237Z,30.30
2022-08-02T12:18:01.860Z,30.33
2022-08-02T12:20:37.143Z,30.32
2022-08-02T12:23:04.681Z,30.34
2022-08-02T12:25:34.509Z,30.37
2022-08-02T12:28:23.340Z,30.32
2022-08-02T12:31:00.146Z,30.35
2022-08-02T12:33:29.782Z,30.30
2022-08-02T12:35:56.595Z,30.30
2022-08-02T12:38:23.304Z,30.24
2022-08-02T12:40:49.989Z,30.19
2022-08-02T12:43:22.422Z,30.12
2022-08-02T12:45:53.493Z,30.09
2022-08-02T12:48:42.206Z,30.06
2022-08-02T12:51:50.754Z,30.04
2022-08-02T12:54:31.235Z,30.10
2022-08-02T12:57:11.059Z,30.14
2022-08-02T12:59:40.444Z,30.26
2022-08-02T13:02:09.601Z,30.32
2022-08-02T13:04:37.124Z,30.45
2022-08-02T13:07:04.936Z,30.49
2022-08-02T13:09:42.324Z,30.50
2022-08-02T13:12:09.125Z,30.52
2022-08-02T13:14:39.934Z,30.50
2022-08-02T13:17:08.966Z,30.51
2022-08-02T13:19:36.645Z,30.49
2022-08-02T13:22:11.315Z,30.51
2022-08-02T13:24:55.063Z,30.56
2022-08-02T13:27:24.800Z,30.63
2022-08-02T13:29:52.612Z,30.69
2022-08-02T13:32:19.238Z,30.63
2022-08-02T13:34:45.982Z,30.75
2022-08-02T13:37:12.611Z,30.80
2022-08-02T13:39:39.216Z,30.80
2022-08-02T13:42:06.090Z,30.77
2022-08-02T13:44:33.347Z,30.78
2022-08-02T13:47:00.876Z,30.81
2022-08-02T13:49:50.021Z,30.84
2022-08-02T13:52:14.505Z,30.88
2022-08-02T13:54:41.398Z,30.93
2022-08-02T13:57:08.111Z,30.97
2022-08-02T13:59:57.457Z,31.02
2022-08-02T14:02:21.377Z,31.10
2022-08-02T14:04:48.165Z,31.22
2022-08-02T14:07:14.692Z,31.36
2022-08-02T14:09:41.597Z,31.49
2022-08-02T14:12:08.332Z,31.59
2022-08-02T14:14:35.029Z,31.65
2022-08-02T14:17:02.030Z,31.67
2022-08-02T14:19:28.663Z,31.67
2022-08-02T14:21:55.836Z,31.66
2022-08-02T14:24:38.251Z,31.59
2022-08-02T14:27:05.051Z,31.54
2022-08-02T14:29:31.603Z,31.52
2022-08-02T14:31:58.232Z,31.59
2022-08-02T14:34:24.785Z,31.74
2022-08-02T14:36:53.824Z,31.93
2022-08-02T14:39:21.230Z,32.18
2022-08-02T14:41:59.962Z,32.40
2022-08-02T14:44:28.412Z,32.63
2022-08-02T14:46:54.906Z,32.70
2022-08-02T14:49:25.388Z,33.00
2022-08-02T14:51:55.833Z,33.28
2022-08-02T14:54:27.790Z,33.57
2022-08-02T14:56:55.801Z,33.88
2022-08-02T14:59:22.644Z,34.03
2022-08-02T15:01:49.276Z,34.41
2022-08-02T15:04:15.888Z,34.72
2022-08-02T15:06:42.536Z,35.02
2022-08-02T15:09:09.131Z,35.20
2022-08-02T15:11:48.283Z,35.28
2022-08-02T15:14:26.045Z,35.23
2022-08-02T15:16:57.028Z,35.18
2022-08-02T15:19:39.242Z,35.05
2022-08-02T15:22:11.512Z,34.85
2022-08-02T15:24:43.124Z,34.62
2022-08-02T15:27:10.016Z,34.50
2022-08-02T15:29:37.218Z,34.55
2022-08-02T15:32:03.848Z,34.70
2022-08-02T15:34:30.515Z,34.94
2022-08-02T15:36:57.109Z,35.24
2022-08-02T15:39:23.824Z,35.51
2022-08-02T15:41:50.442Z,35.75
2022-08-02T15:44:17.035Z,35.98
2022-08-02T15:46:43.694Z,36.16
2022-08-02T15:49:10.213Z,36.18
2022-08-02T15:51:36.904Z,36.07
2022-08-02T15:54:03.500Z,35.88
2022-08-02T15:56:30.064Z,35.61
2022-08-02T15:58:57.063Z,35.47
2022-08-02T16:01:25.721Z,35.46
2022-08-02T16:04:04.706Z,35.51
2022-08-02T16:06:31.274Z,35.45
2022-08-02T16:08:57.896Z,35.32
2022-08-02T16:11:24.432Z,35.17
2022-08-02T16:13:52.743Z,35.06
2022-08-02T16:16:25.375Z,34.86
2022-08-02T16:18:52.066Z,34.60
2022-08-02T16:21:18.762Z,34.33
2022-08-02T16:24:01.843Z,34.08
2022-08-02T16:26:33.281Z,33.85
2022-08-02T16:29:01.288Z,33.74
2022-08-02T16:31:28.231Z,33.72
2022-08-02T16:33:56.556Z,33.77
2022-08-02T16:36:25.191Z,33.92
2022-08-02T16:38:53.878Z,34.15
2022-08-02T16:41:21.500Z,34.45
2022-08-02T16:43:48.104Z,34.56
2022-08-02T16:46:14.985Z,35.04
2022-08-02T16:51:23.664Z,35.77
2022-08-02T16:54:00.483Z,36.08
2022-08-02T16:56:30.356Z,36.44
2022-08-02T16:59:57.772Z,36.66
2022-08-02T17:02:26.659Z,37.01
2022-08-02T17:04:54.750Z,37.19
2022-08-02T17:08:07.424Z,37.36
2022-08-02T17:10:14.285Z,37.57
2022-08-02T17:12:45.926Z,37.73
2022-08-02T17:16:01.525Z,37.79
2022-08-02T17:18:05.332Z,37.69
2022-08-02T17:20:35.986Z,37.88
2022-08-02T17:23:04.056Z,37.86
2022-08-02T17:25:32.028Z,37.80
2022-08-02T17:27:59.428Z,37.67
2022-08-02T17:30:27.262Z,37.49
2022-08-02T17:32:57.799Z,37.33
2022-08-02T17:35:26.838Z,37.15
2022-08-02T17:38:10.468Z,37.01
2022-08-02T17:40:37.428Z,36.85
2022-08-02T17:43:14.492Z,36.74
2022-08-02T17:46:00.222Z,36.60
2022-08-02T17:48:29.327Z,36.45
2022-08-02T17:51:04.146Z,36.26
2022-08-02T17:53:36.233Z,36.03
2022-08-02T17:56:03.374Z,35.72
2022-08-02T17:58:33.465Z,35.37
2022-08-02T18:01:00.678Z,34.99
2022-08-02T18:03:28.591Z,34.64
2022-08-02T18:05:57.537Z,34.30
2022-08-02T18:08:24.601Z,33.97
2022-08-02T18:10:53.704Z,33.67
2022-08-02T18:13:23.857Z,33.37
2022-08-02T18:15:51.839Z,33.07
2022-08-02T18:18:29.264Z,32.79
2022-08-02T18:20:56.876Z,32.50
2022-08-02T18:23:24.297Z,32.25
2022-08-02T18:25:55.172Z,32.00
2022-08-02T18:28:26.759Z,31.79
2022-08-02T18:30:53.751Z,31.53
2022-08-02T18:33:57.199Z,31.30
2022-08-02T18:36:11.030Z,31.03
2022-08-02T18:38:51.411Z,30.83
2022-08-02T18:41:18.948Z,30.53
2022-08-02T18:43:48.521Z,30.46
2022-08-02T18:46:17.290Z,30.29
2022-08-02T18:48:48.006Z,30.13
2022-08-02T18:51:15.144Z,29.83
2022-08-02T18:53:42.831Z,29.77
2022-08-02T18:56:20.295Z,29.62
2022-08-02T18:58:55.242Z,29.46
2022-08-02T19:01:33.883Z,29.31
2022-08-02T19:04:02.977Z,29.18
2022-08-02T19:06:29.932Z,29.04
2022-08-02T19:09:05.434Z,28.91
2022-08-02T19:11:38.317Z,28.75
2022-08-02T19:14:05.105Z,28.62
2022-08-02T19:16:36.827Z,28.48
2022-08-02T19:19:07.446Z,28.34
2022-08-02T19:22:26.521Z,28.22
2022-08-02T19:24:20.776Z,28.09
2022-08-02T19:26:51.715Z,27.97
2022-08-02T19:29:25.053Z,27.87
2022-08-02T19:32:39.201Z,27.76
2022-08-02T19:34:53.360Z,27.63
2022-08-02T19:37:20.076Z,27.55
2022-08-02T19:39:46.693Z,27.45
2022-08-02T19:42:14.748Z,27.35
2022-08-02T19:44:45.075Z,27.23
2022-08-02T19:47:12.981Z,27.14
2022-08-02T19:49:48.676Z,27.04
2022-08-02T19:52:22.121Z,26.95
2022-08-02T19:54:55.356Z,26.86
2022-08-02T19:57:22.779Z,26.77
2022-08-02T19:59:49.620Z,26.68
2022-08-02T20:02:18.074Z,26.61
2022-08-02T20:04:50.372Z,26.50
2022-08-02T20:07:54.952Z,26.41
2022-08-02T20:10:10.960Z,26.31
2022-08-02T20:12:41.928Z,26.22
2022-08-02T20:15:14.468Z,26.14
2022-08-02T20:17:47.360Z,26.05
2022-08-02T20:20:14.691Z,25.96
2022-08-02T20:22:41.513Z,25.88
2022-08-02T20:25:10.294Z,25.78
2022-08-02T20:27:50.995Z,25.69
2022-08-02T20:30:18.216Z,25.60
2022-08-02T20:32:52.726Z,25.52
2022-08-02T20:35:23.234Z,25.44
2022-08-02T20:38:01.420Z,25.38
2022-08-02T20:40:29.621Z,25.31
2022-08-02T20:42:56.788Z,25.28
2022-08-02T20:45:24.048Z,25.21
2022-08-02T20:47:54.577Z,25.16
2022-08-02T20:50:22.328Z,25.12
2022-08-02T20:52:57.647Z,25.08
2022-08-02T20:55:25.015Z,25.03
2022-08-02T20:58:00.273Z,25.01
2022-08-02T21:00:27.964Z,24.96
2022-08-02T21:02:54.507Z,24.93
2022-08-02T21:05:26.738Z,24.88
2022-08-02T21:08:11.532Z,24.83
2022-08-02T21:10:43.594Z,24.79
2022-08-02T21:13:18.522Z,24.74
2022-08-02T21:15:46.023Z,24.69
2022-08-02T21:18:23.888Z,24.65
2022-08-02T21:20:59.902Z,24.59
2022-08-02T21:23:27.328Z,24.53
2022-08-02T21:25:57.276Z,24.52
2022-08-02T21:28:24.739Z,24.46
2022-08-02T21:31:10.081Z,24.40
2022-08-02T21:33:57.105Z,24.35
2022-08-02T21:36:23.440Z,24.27
2022-08-02T21:38:58.140Z,24.22
2022-08-02T21:41:24.718Z,24.17
2022-08-02T21:44:07.422Z,24.11
2022-08-02T21:46:34.691Z,24.05
2022-08-02T21:49:01.735Z,24.01
2022-08-02T21:51:29.095Z,23.96
2022-08-02T21:54:18.638Z,23.93
2022-08-02T21:56:48.484Z,23.88
2022-08-02T21:59:17.252Z,23.83
2022-08-02T22:01:52.864Z,23.78
2022-08-02T22:04:21.350Z,23.73
2022-08-02T22:06:49.077Z,23.68
2022-08-02T22:09:43.983Z,23.64
2022-08-02T22:12:09.709Z,23.61
2022-08-02T22:14:39.429Z,23.55
2022-08-02T22:17:08.775Z,23.51
2022-08-02T22:19:40.151Z,23.45
2022-08-02T22:22:20.689Z,23.38
2022-08-02T22:24:55.940Z,23.33
2022-08-02T22:27:23.573Z,23.27
2022-08-02T22:30:10.732Z,23.21
2022-08-02T22:32:38.091Z,23.16
2022-08-02T22:35:08.786Z,23.12
2022-08-02T22:38:14.920Z,23.08
2022-08-02T22:40:22.120Z,23.04
2022-08-02T22:42:50.910Z,22.99
2022-08-02T22:45:17.447Z,22.94
2022-08-02T22:47:50.854Z,22.89
2022-08-02T22:50:18.083Z,22.83
2022-08-02T22:52:46.857Z,22.76
2022-08-02T22:55:17.430Z,22.71
2022-08-02T22:57:56.635Z,22.65
2022-08-02T23:00:25.497Z,22.62
2022-08-02T23:02:52.041Z,22.47
2022-08-02T23:05:18.682Z,22.53
2022-08-02T23:07:45.328Z,22.51
2022-08-02T23:10:11.975Z,22.49
2022-08-02T23:12:38.563Z,22.46
2022-08-02T23:15:05.510Z,22.43
2022-08-02T23:17:32.367Z,22.40
2022-08-02T23:19:58.931Z,22.38
2022-08-02T23:22:29.864Z,22.35
2022-08-02T23:25:00.213Z,22.31
2022-08-02T23:27:26.862Z,22.26
2022-08-02T23:29:53.488Z,22.23
2022-08-02T23:32:22.881Z,22.19
2022-08-02T23:34:53.188Z,22.15
2022-08-02T23:37:19.850Z,22.10
2022-08-02T23:39:46.614Z,22.07
2022-08-02T23:42:13.289Z,22.02
2022-08-02T23:44:40.290Z,22.01
2022-08-02T23:47:07.324Z,21.96
2022-08-02T23:49:34.000Z,21.93
2022-08-02T23:52:01.980Z,21.90
2022-08-02T23:54:28.784Z,21.75
2022-08-02T23:56:55.544Z,21.81
2022-08-02T23:59:22.049Z,21.78
